Aeroporto :
LOGIN :

Iscrizione | Disclaimer

   EN    FR    IT 

 










Sommario :    VFR   VFR Marginale   IFR   IFR Intensivo   IFR Molto Intensivo
Visibilità : 
Base nubi : 
>= 8 km
>= 3000ft
5 / 8 km
1000 / 3000 ft
1500m / 5 km
500 / 1000 ft
800 / 1500m
200 / 500 ft
< 800m
< 200 ft
Simboli :   Temporali  Nebbia  Neve Forte  Precipitazioni Forti  Vento > 20 kt
SIGMETs :   Varie  Temporali  Ghiacco  Turbolenza  Onda orograficha  Ceneri Vulcaniche






- Altitudine del aeroporto : 399 ft
- Codice IATA : KIV


LUKK - Chisinau Int.

ULTIMO METAR :
  • 290300Z AUTO VRB02KT //// R08/P2000N SCT075/// 07/M01 Q1007 R08/CLRD// NOSIG

METARs OBSOLETI :
  • 290230Z AUTO VRB01KT //// R08/P2000N NCD 08/M01 Q1007 R08/CLRD// NOSIG
  • 290200Z AUTO 35006KT //// R08/P2000N NCD 08/M01 Q1007 R08/CLRD// NOSIG
  • 290130Z AUTO 35005KT //// R08/P2000N NCD 08/M01 Q1007 R08/CLRD// NOSIG
  • 290100Z AUTO 35006KT //// R08/P2000N NCD 08/M01 Q1007 R08/CLRD// NOSIG

TAF TAF LUKK
Valido dal 29 a 00 ore il 30 a 00 ore UTC


282320Z 2900/2924 33004KT CAVOK
BECMG 2906/2908 32010KT
BECMG 2918/2920 28006KT



MetMap, La meteo Aeronautica in un colpo d'occhio ! - Copyright ORBIFLY Dicembre 2007 - Disclaimer

ORBIFLY MET'MAP TEAM :

Programmazione e sviluppo : Alexandra Zaïnal
Concezione : Baudouin d'Aumeries
Aiuto per la programmazione : Marc-Olivier Méhu
Supporto tecnico e logistico : Manuel Goepfert
Aiuto per la traduzione : Arnaldo La Scala

Contatto : metmap@orbifly.com




FONTI E CREDITI :

   NOAA